createdAt,value
2022-10-23T00:00:53.429Z,98623.38
2022-10-23T00:03:40.809Z,98628.48
2022-10-23T00:06:10.953Z,98630.88
2022-10-23T00:08:40.808Z,98632.89
2022-10-23T00:11:19.676Z,98630.86
2022-10-23T00:13:55.506Z,98637.52
2022-10-23T00:16:28.941Z,98642.04
2022-10-23T00:18:57.827Z,98641.21
2022-10-23T00:21:27.432Z,98648.25
2022-10-23T00:24:28.520Z,98646.42
2022-10-23T00:27:03.712Z,98641.11
2022-10-23T00:29:35.623Z,98640.65
2022-10-23T00:32:03.780Z,98643.21
2022-10-23T00:34:32.695Z,98641.37
2022-10-23T00:37:02.649Z,98639.95
2022-10-23T00:39:31.408Z,98638.04
2022-10-23T00:42:00.381Z,98638.98
2022-10-23T00:44:28.168Z,98648.17
2022-10-23T00:47:02.718Z,98646.52
2022-10-23T00:49:32.484Z,98631.27
2022-10-23T00:52:07.444Z,98630.30
2022-10-23T00:54:44.674Z,98632.27
2022-10-23T00:57:17.796Z,98634.43
2022-10-23T00:59:47.777Z,98641.63
2022-10-23T01:02:16.666Z,98647.87
2022-10-23T01:04:47.544Z,98646.44
2022-10-23T01:07:26.257Z,98648.75
2022-10-23T01:10:15.138Z,98646.47
2022-10-23T01:12:49.624Z,98644.55
2022-10-23T01:16:04.685Z,98649.77
2022-10-23T01:18:45.773Z,98655.91
2022-10-23T01:21:22.668Z,98654.23
2022-10-23T01:24:24.982Z,98657.24
2022-10-23T01:27:15.073Z,98657.67
2022-10-23T01:29:55.768Z,98657.17
2022-10-23T01:32:37.280Z,98656.25
2022-10-23T01:35:14.456Z,98653.30
2022-10-23T01:37:45.279Z,98652.39
2022-10-23T01:40:27.460Z,98651.45
2022-10-23T01:42:58.369Z,98655.20
2022-10-23T01:45:39.235Z,98658.04
2022-10-23T01:48:10.884Z,98660.77
2022-10-23T01:50:42.777Z,98663.02
2022-10-23T01:53:10.836Z,98666.52
2022-10-23T01:55:45.035Z,98664.56
2022-10-23T01:58:21.180Z,98666.63
2022-10-23T02:00:55.712Z,98667.05
2022-10-23T02:03:33.470Z,98667.47
2022-10-23T02:06:05.794Z,98665.86
2022-10-23T02:08:40.558Z,98663.63
2022-10-23T02:11:13.135Z,98663.81
2022-10-23T02:13:44.102Z,98662.51
2022-10-23T02:16:42.896Z,98657.02
2022-10-23T02:19:30.492Z,98657.95
2022-10-23T02:22:23.175Z,98663.60
2022-10-23T02:25:04.973Z,98668.42
2022-10-23T02:27:45.325Z,98666.32
2022-10-23T02:30:18.232Z,98667.23
2022-10-23T02:32:54.151Z,98677.35
2022-10-23T02:35:26.410Z,98680.95
2022-10-23T02:38:03.600Z,98680.33
2022-10-23T02:40:44.147Z,98684.50
2022-10-23T02:43:24.323Z,98686.61
2022-10-23T02:46:10.479Z,98685.16
2022-10-23T02:48:54.930Z,98687.58
2022-10-23T02:51:45.294Z,98686.53
2022-10-23T02:54:26.059Z,98690.77
2022-10-23T02:57:05.001Z,98692.00
2022-10-23T02:59:45.461Z,98689.15
2022-10-23T03:02:26.315Z,98688.48
2022-10-23T03:05:03.286Z,98685.30
2022-10-23T03:07:34.288Z,98682.70
2022-10-23T03:10:07.270Z,98682.46
2022-10-23T03:12:39.997Z,98687.02
2022-10-23T03:15:10.986Z,98688.41
2022-10-23T03:17:42.124Z,98687.95
2022-10-23T03:20:11.977Z,98695.90
2022-10-23T03:22:41.590Z,98696.75
2022-10-23T03:25:11.874Z,98695.20
2022-10-23T03:27:44.506Z,98700.05
2022-10-23T03:30:13.944Z,98702.17
2022-10-23T03:32:43.273Z,98697.47
2022-10-23T03:35:12.400Z,98699.00
2022-10-23T03:37:42.686Z,98698.65
2022-10-23T03:40:11.344Z,98703.32
2022-10-23T03:42:40.298Z,98703.20
2022-10-23T03:45:15.927Z,98705.76
2022-10-23T03:47:52.101Z,98705.54
2022-10-23T03:50:21.137Z,98702.83
2022-10-23T03:52:50.924Z,98699.50
2022-10-23T03:55:18.843Z,98702.22
2022-10-23T03:57:46.743Z,98701.28
2022-10-23T04:00:17.005Z,98707.08
2022-10-23T04:02:45.626Z,98709.63
2022-10-23T04:05:15.163Z,98715.94
2022-10-23T04:07:54.837Z,98718.21
2022-10-23T04:10:26.562Z,98712.20
2022-10-23T04:12:54.639Z,98709.34
2022-10-23T04:15:26.681Z,98701.23
2022-10-23T04:17:56.782Z,98694.36
2022-10-23T04:20:30.637Z,98688.97
2022-10-23T04:23:05.798Z,98687.71
2022-10-23T04:25:36.264Z,98691.27
2022-10-23T04:28:04.849Z,98680.88
2022-10-23T04:30:41.985Z,98680.65
2022-10-23T04:33:16.437Z,98683.42
2022-10-23T04:35:45.513Z,98685.44
2022-10-23T04:38:17.255Z,98684.60
2022-10-23T04:40:45.253Z,98682.50
2022-10-23T04:43:16.710Z,98685.34
2022-10-23T04:45:45.839Z,98685.95
2022-10-23T04:48:13.774Z,98689.96
2022-10-23T04:51:14.994Z,98686.91
2022-10-23T04:54:05.701Z,98684.93
2022-10-23T04:57:06.782Z,98690.02
2022-10-23T04:59:53.469Z,98688.62
2022-10-23T05:02:23.639Z,98691.83
2022-10-23T05:04:52.096Z,98685.10
2022-10-23T05:07:36.302Z,98685.80
2022-10-23T05:10:17.284Z,98688.48
2022-10-23T05:13:08.112Z,98693.46
2022-10-23T05:15:38.526Z,98703.25
2022-10-23T05:18:17.498Z,98700.92
2022-10-23T05:20:50.790Z,98700.04
2022-10-23T05:23:22.094Z,98697.94
2022-10-23T05:26:05.098Z,98699.58
2022-10-23T05:28:37.882Z,98699.96
2022-10-23T05:31:06.774Z,98703.09
2022-10-23T05:33:41.131Z,98708.74
2022-10-23T05:36:13.513Z,98708.14
2022-10-23T05:38:46.200Z,98713.29
2022-10-23T05:41:19.889Z,98717.38
2022-10-23T05:43:48.750Z,98716.04
2022-10-23T05:46:43.304Z,98716.35
2022-10-23T05:49:32.425Z,98724.63
2022-10-23T05:52:37.664Z,98730.76
2022-10-23T05:55:07.050Z,98732.62
2022-10-23T05:57:49.431Z,98738.68
2022-10-23T06:00:24.615Z,98738.33
2022-10-23T06:03:04.270Z,98748.15
2022-10-23T06:05:36.850Z,98733.56
2022-10-23T06:08:20.323Z,98751.13
2022-10-23T06:10:55.659Z,98754.47
2022-10-23T06:13:24.669Z,98755.60
2022-10-23T06:15:54.693Z,98758.73
2022-10-23T06:18:32.702Z,98764.26
2022-10-23T06:21:07.504Z,98764.49
2022-10-23T06:23:39.806Z,98764.20
2022-10-23T06:26:14.331Z,98764.95
2022-10-23T06:29:16.468Z,98764.71
2022-10-23T06:31:45.936Z,98768.89
2022-10-23T06:34:15.846Z,98767.72
2022-10-23T06:36:45.000Z,98775.42
2022-10-23T06:39:32.018Z,98777.77
2022-10-23T06:42:26.844Z,98773.98
2022-10-23T06:45:01.132Z,98773.23
2022-10-23T06:47:51.495Z,98780.52
2022-10-23T06:51:07.462Z,98776.84
2022-10-23T06:53:42.304Z,98773.67
2022-10-23T06:56:29.329Z,98784.59
2022-10-23T06:58:59.743Z,98785.77
2022-10-23T07:01:30.914Z,98787.23
2022-10-23T07:04:00.186Z,98782.58
2022-10-23T07:06:28.530Z,98772.98
2022-10-23T07:08:56.813Z,98775.37
2022-10-23T07:11:49.267Z,98773.86
2022-10-23T07:14:19.591Z,98769.61
2022-10-23T07:16:52.771Z,98767.52
2022-10-23T07:19:22.406Z,98776.55
2022-10-23T07:21:59.272Z,98776.52
2022-10-23T07:24:45.854Z,98775.70
2022-10-23T07:27:41.426Z,98774.55
2022-10-23T07:30:31.076Z,98780.54
2022-10-23T07:33:02.120Z,98789.49
2022-10-23T07:35:38.522Z,98793.15
2022-10-23T07:38:13.969Z,98788.34
2022-10-23T07:40:47.829Z,98784.78
2022-10-23T07:43:20.892Z,98786.80
2022-10-23T07:45:58.846Z,98785.61
2022-10-23T07:48:40.022Z,98780.41
2022-10-23T07:51:13.034Z,98776.23
2022-10-23T07:53:47.042Z,98774.00
2022-10-23T07:56:40.740Z,98775.77
2022-10-23T07:59:24.712Z,98778.58
2022-10-23T08:01:58.833Z,98785.23
2022-10-23T08:04:33.621Z,98788.61
2022-10-23T08:07:17.834Z,98794.20
2022-10-23T08:09:52.939Z,98794.66
2022-10-23T08:12:21.889Z,98797.89
2022-10-23T08:14:51.148Z,98799.39
2022-10-23T08:17:21.035Z,98795.70
2022-10-23T08:20:08.664Z,98797.81
2022-10-23T08:22:43.149Z,98797.29
2022-10-23T08:25:11.130Z,98800.94
2022-10-23T08:27:39.309Z,98799.84
2022-10-23T08:30:08.114Z,98795.16
2022-10-23T08:32:44.706Z,98798.95
2022-10-23T08:35:16.754Z,98797.89
2022-10-23T08:37:46.146Z,98804.42
2022-10-23T08:40:23.932Z,98804.82
2022-10-23T08:43:51.272Z,98805.45
2022-10-23T08:46:32.797Z,98811.84
2022-10-23T08:49:44.807Z,98812.89
2022-10-23T08:52:37.557Z,98815.80
2022-10-23T08:55:22.477Z,98814.59
2022-10-23T08:57:56.945Z,98818.98
2022-10-23T09:00:28.746Z,98818.73
2022-10-23T09:02:57.452Z,98822.92
2022-10-23T09:05:35.212Z,98826.93
2022-10-23T09:08:22.041Z,98824.58
2022-10-23T09:11:12.436Z,98831.04
2022-10-23T09:13:49.884Z,98839.98
2022-10-23T09:16:42.691Z,98842.13
2022-10-23T09:19:28.203Z,98843.88
2022-10-23T09:22:01.788Z,98842.90
2022-10-23T09:24:34.078Z,98850.52
2022-10-23T09:27:17.070Z,98846.59
2022-10-23T09:29:50.504Z,98847.14
2022-10-23T09:32:37.134Z,98846.43
2022-10-23T09:35:06.861Z,98845.94
2022-10-23T09:37:47.890Z,98839.95
2022-10-23T09:40:24.894Z,98836.62
2022-10-23T09:43:05.036Z,98842.78
2022-10-23T09:45:39.234Z,98846.14
2022-10-23T09:48:14.604Z,98850.16
2022-10-23T09:50:52.987Z,98855.44
2022-10-23T09:53:28.141Z,98866.06
2022-10-23T09:56:27.312Z,98867.49
2022-10-23T09:59:06.146Z,98862.84
2022-10-23T10:01:38.923Z,98851.91
2022-10-23T10:04:47.223Z,98848.30
2022-10-23T10:07:26.908Z,98844.84
2022-10-23T10:09:55.919Z,98839.55
2022-10-23T10:12:53.336Z,98830.77
2022-10-23T10:15:47.998Z,98827.89
2022-10-23T10:19:04.632Z,98828.15
2022-10-23T10:21:47.145Z,98825.94
2022-10-23T10:24:32.322Z,98826.59
2022-10-23T10:27:38.447Z,98824.16
2022-10-23T10:30:23.022Z,98818.77
2022-10-23T10:33:16.770Z,98805.56
2022-10-23T10:36:01.447Z,98803.41
2022-10-23T10:38:45.218Z,98801.04
2022-10-23T10:41:32.949Z,98797.56
2022-10-23T10:44:04.762Z,98796.05
2022-10-23T10:46:56.296Z,98792.14
2022-10-23T10:49:40.518Z,98795.27
2022-10-23T10:52:49.382Z,98793.13
2022-10-23T10:55:28.745Z,98783.83
2022-10-23T10:58:23.698Z,98787.31
2022-10-23T11:01:03.025Z,98785.94
2022-10-23T11:03:42.592Z,98778.89
2022-10-23T11:06:18.978Z,98770.83
2022-10-23T11:08:57.916Z,98772.98
2022-10-23T11:11:49.010Z,98767.50
2022-10-23T11:14:19.754Z,98750.87
2022-10-23T11:16:59.027Z,98760.15
2022-10-23T11:19:42.901Z,98744.25
2022-10-23T11:22:43.999Z,98759.67
2022-10-23T11:25:50.447Z,98744.41
2022-10-23T11:28:34.311Z,98748.11
2022-10-23T11:31:32.534Z,98739.45
2022-10-23T11:34:49.173Z,98732.34
2022-10-23T11:37:21.952Z,98733.40
2022-10-23T11:40:12.742Z,98724.02
2022-10-23T11:42:51.088Z,98725.45
2022-10-23T11:46:24.107Z,98720.30
2022-10-23T11:48:47.578Z,98709.89
2022-10-23T11:51:37.649Z,98702.06
2022-10-23T11:54:35.884Z,98692.20
2022-10-23T11:57:36.249Z,98685.64
2022-10-23T12:00:44.712Z,98669.98
2022-10-23T12:13:55.146Z,98641.92
2022-10-23T12:16:58.328Z,98655.60
2022-10-23T12:20:25.727Z,98661.63
2022-10-23T12:24:00.812Z,98674.50
2022-10-23T12:27:25.697Z,98667.35
2022-10-23T12:33:58.679Z,98672.26
2022-10-23T12:37:42.645Z,98668.65
2022-10-23T12:40:50.541Z,98669.88
2022-10-23T12:47:11.256Z,98660.13
2022-10-23T12:49:56.031Z,98649.77
2022-10-23T12:55:40.314Z,98642.02
2022-10-23T12:59:33.405Z,98639.09
2022-10-23T13:02:44.866Z,98642.83
2022-10-23T13:06:22.508Z,98636.35
2022-10-23T13:09:24.973Z,98635.86
2022-10-23T13:13:19.121Z,98618.46
2022-10-23T13:20:53.249Z,98634.86
2022-10-23T13:23:58.153Z,98623.90
2022-10-23T13:26:58.588Z,98623.58
2022-10-23T13:30:44.069Z,98619.77
2022-10-23T13:34:10.454Z,98618.57
2022-10-23T13:40:33.419Z,98607.20
2022-10-23T13:43:30.789Z,98606.95
2022-10-23T13:46:30.698Z,98614.26
2022-10-23T13:49:41.089Z,98609.30
2022-10-23T13:58:48.035Z,98602.15
2022-10-23T14:01:29.065Z,98600.15
2022-10-23T14:03:57.894Z,98602.11
2022-10-23T14:06:26.167Z,98591.41
2022-10-23T14:09:08.865Z,98593.70
2022-10-23T14:12:28.961Z,98590.84
2022-10-23T14:16:30.122Z,98585.83
2022-10-23T14:22:17.450Z,98590.79
2022-10-23T14:25:39.321Z,98581.85
2022-10-23T14:28:41.710Z,98585.36
2022-10-23T14:31:18.596Z,98584.88
2022-10-23T14:33:58.733Z,98584.82
2022-10-23T14:36:43.233Z,98584.66
2022-10-23T14:43:04.317Z,98580.02
2022-10-23T14:52:48.213Z,98568.00
2022-10-23T14:59:34.749Z,98564.59
2022-10-23T15:08:45.303Z,98560.71
2022-10-23T15:11:14.296Z,98552.51
2022-10-23T15:13:50.780Z,98553.02
2022-10-23T15:16:44.885Z,98541.94
2022-10-23T15:19:24.946Z,98548.55
2022-10-23T15:22:37.326Z,98552.55
2022-10-23T15:25:06.801Z,98550.77
2022-10-23T15:27:37.230Z,98549.92
2022-10-23T15:30:43.543Z,98549.21
2022-10-23T15:33:16.454Z,98547.33
2022-10-23T15:35:48.688Z,98551.34
2022-10-23T15:38:17.819Z,98551.08
2022-10-23T15:40:46.734Z,98551.08
2022-10-23T15:43:17.210Z,98549.24
2022-10-23T15:45:47.685Z,98549.27
2022-10-23T15:48:16.732Z,98553.41
2022-10-23T15:50:58.219Z,98556.66
2022-10-23T15:53:27.399Z,98553.40
2022-10-23T15:55:58.850Z,98548.76
2022-10-23T15:58:27.265Z,98551.92
2022-10-23T16:01:10.497Z,98553.70
2022-10-23T16:03:51.230Z,98554.56
2022-10-23T16:06:46.566Z,98539.00
2022-10-23T16:09:17.542Z,98560.68
2022-10-23T16:13:03.207Z,98564.66
2022-10-23T16:19:39.334Z,98566.90
2022-10-23T16:23:05.706Z,98573.42
2022-10-23T16:30:30.564Z,98578.71
2022-10-23T16:33:45.601Z,98583.15
2022-10-23T16:40:34.397Z,98584.42
2022-10-23T16:43:34.895Z,98581.70
2022-10-23T16:46:17.164Z,98583.29
2022-10-23T16:48:45.180Z,98584.97
2022-10-23T16:51:17.388Z,98583.51
2022-10-23T16:53:50.232Z,98582.90
2022-10-23T16:56:25.368Z,98583.15
2022-10-23T17:01:31.321Z,98590.60
2022-10-23T17:03:59.483Z,98589.60
2022-10-23T17:06:31.317Z,98584.51
2022-10-23T17:09:10.081Z,98597.70
2022-10-23T17:11:44.390Z,98597.15
2022-10-23T17:14:16.668Z,98611.01
2022-10-23T17:16:46.901Z,98610.50
2022-10-23T17:19:33.083Z,98607.34
2022-10-23T17:22:10.828Z,98596.02
2022-10-23T17:24:41.183Z,98600.41
2022-10-23T17:27:10.022Z,98596.65
2022-10-23T17:29:49.184Z,98597.67
2022-10-23T17:32:18.211Z,98598.50
2022-10-23T17:34:47.175Z,98596.80
2022-10-23T17:37:17.604Z,98592.67
2022-10-23T17:39:46.700Z,98588.92
2022-10-23T17:42:20.212Z,98570.23
2022-10-23T17:44:49.005Z,98586.66
2022-10-23T17:47:23.096Z,98580.56
2022-10-23T17:49:52.020Z,98577.35
2022-10-23T17:55:04.770Z,98567.96
2022-10-23T17:57:41.969Z,98568.77
2022-10-23T18:00:10.599Z,98564.90
2022-10-23T18:02:45.075Z,98565.65
2022-10-23T18:05:15.148Z,98563.19
2022-10-23T18:07:43.683Z,98562.28
2022-10-23T18:10:19.976Z,98555.10
2022-10-23T18:12:49.828Z,98547.67
2022-10-23T18:15:20.561Z,98556.66
2022-10-23T18:17:49.668Z,98556.99
2022-10-23T18:20:17.561Z,98556.58
2022-10-23T18:22:52.684Z,98549.79
2022-10-23T18:25:26.790Z,98551.27
2022-10-23T18:28:00.387Z,98547.98
2022-10-23T18:33:16.240Z,98546.96
2022-10-23T18:35:45.209Z,98541.53
2022-10-23T18:38:22.945Z,98541.70
2022-10-23T18:40:57.221Z,98538.25
2022-10-23T18:43:42.511Z,98531.64
2022-10-23T18:46:13.677Z,98526.70
2022-10-23T18:48:44.231Z,98533.92
2022-10-23T18:51:22.402Z,98540.91
2022-10-23T18:53:51.991Z,98541.89
2022-10-23T18:56:24.441Z,98539.10
2022-10-23T18:58:55.812Z,98528.90
2022-10-23T19:01:30.100Z,98528.27
2022-10-23T19:03:59.961Z,98523.08
2022-10-23T19:06:29.071Z,98523.35
2022-10-23T19:08:59.087Z,98516.76
2022-10-23T19:11:37.573Z,98515.90
2022-10-23T19:14:10.200Z,98525.85
2022-10-23T19:16:43.934Z,98529.04
2022-10-23T19:19:22.029Z,98531.20
2022-10-23T19:21:52.149Z,98530.95
2022-10-23T19:24:23.324Z,98530.36
2022-10-23T19:26:52.159Z,98530.46
2022-10-23T19:29:23.451Z,98520.20
2022-10-23T19:31:54.047Z,98518.47
2022-10-23T19:34:25.208Z,98521.67
2022-10-23T19:36:59.343Z,98530.96
2022-10-23T19:39:30.419Z,98530.72
2022-10-23T19:41:58.825Z,98528.96
2022-10-23T19:44:30.334Z,98530.90
2022-10-23T19:47:07.877Z,98533.48
2022-10-23T19:49:37.317Z,98526.70
2022-10-23T19:52:05.272Z,98529.95
2022-10-23T19:54:34.562Z,98530.61
2022-10-23T19:57:10.136Z,98532.72
2022-10-23T20:00:16.872Z,98525.63
2022-10-23T20:02:49.078Z,98508.92
2022-10-23T20:05:20.844Z,98500.98
2022-10-23T20:07:55.599Z,98500.11
2022-10-23T20:10:26.181Z,98495.57
2022-10-23T20:12:57.059Z,98492.89
2022-10-23T20:15:44.956Z,98489.38
2022-10-23T20:18:20.045Z,98488.80
2022-10-23T20:20:53.809Z,98490.63
2022-10-23T20:23:26.999Z,98484.16
2022-10-23T20:25:55.160Z,98481.66
2022-10-23T20:28:23.135Z,98484.33
2022-10-23T20:31:10.928Z,98489.35
2022-10-23T20:33:46.025Z,98481.80
2022-10-23T20:36:26.055Z,98474.61
2022-10-23T20:38:59.889Z,98470.30
2022-10-23T20:41:32.507Z,98458.02
2022-10-23T20:44:09.755Z,98471.59
2022-10-23T20:46:53.352Z,98468.85
2022-10-23T20:49:39.014Z,98465.91
2022-10-23T20:52:11.056Z,98464.27
2022-10-23T20:54:38.997Z,98471.73
2022-10-23T20:57:07.536Z,98478.59
2022-10-23T20:59:39.997Z,98479.21
2022-10-23T21:02:09.679Z,98484.44
2022-10-23T21:04:38.890Z,98482.25
2022-10-23T21:07:19.217Z,98479.92
2022-10-23T21:09:49.333Z,98468.98
2022-10-23T21:12:19.543Z,98462.89
2022-10-23T21:14:48.666Z,98462.63
2022-10-23T21:17:24.116Z,98462.47
2022-10-23T21:19:53.362Z,98463.15
2022-10-23T21:22:23.310Z,98457.50
2022-10-23T21:24:57.080Z,98456.08
2022-10-23T21:27:26.592Z,98458.77
2022-10-23T21:29:55.435Z,98459.66
2022-10-23T21:32:24.645Z,98466.00
2022-10-23T21:34:55.190Z,98467.12
2022-10-23T21:37:25.583Z,98470.08
2022-10-23T21:39:54.475Z,98463.56
2022-10-23T21:42:25.737Z,98463.92
2022-10-23T21:44:54.951Z,98461.96
2022-10-23T21:47:29.124Z,98459.64
2022-10-23T21:49:58.023Z,98457.34
2022-10-23T21:52:26.891Z,98451.70
2022-10-23T21:54:55.851Z,98444.79
2022-10-23T21:57:24.757Z,98440.69
2022-10-23T21:59:54.774Z,98435.62
2022-10-23T22:02:23.954Z,98424.98
2022-10-23T22:04:51.989Z,98427.70
2022-10-23T22:07:22.142Z,98426.29
2022-10-23T22:09:51.135Z,98424.32
2022-10-23T22:12:22.910Z,98416.53
2022-10-23T22:14:50.974Z,98414.20
2022-10-23T22:17:19.923Z,98414.66
2022-10-23T22:19:48.002Z,98416.80
2022-10-23T22:22:17.002Z,98415.66
2022-10-23T22:24:47.185Z,98417.42
2022-10-23T22:27:21.797Z,98414.51
2022-10-23T22:29:51.892Z,98414.64
2022-10-23T22:34:53.035Z,98404.29
2022-10-23T22:37:21.811Z,98408.91
2022-10-23T22:39:52.406Z,98410.77
2022-10-23T22:42:21.379Z,98407.10
2022-10-23T22:44:53.882Z,98403.02
2022-10-23T22:47:22.799Z,98407.74
2022-10-23T22:49:52.848Z,98410.56
2022-10-23T22:52:27.008Z,98405.11
2022-10-23T22:54:56.055Z,98420.45
2022-10-23T23:00:01.361Z,98414.41
2022-10-23T23:02:32.798Z,98398.20
2022-10-23T23:05:07.106Z,98405.65
2022-10-23T23:07:35.951Z,98395.29
2022-10-23T23:10:05.312Z,98389.78
2022-10-23T23:12:37.115Z,98388.38
2022-10-23T23:15:11.189Z,98386.63
2022-10-23T23:17:45.253Z,98382.73
2022-10-23T23:20:15.688Z,98379.75
2022-10-23T23:22:43.868Z,98372.45
2022-10-23T23:25:12.857Z,98383.39
2022-10-23T23:27:41.700Z,98392.52
2022-10-23T23:30:11.693Z,98396.03
2022-10-23T23:32:41.798Z,98385.61
2022-10-23T23:35:10.959Z,98379.00
2022-10-23T23:37:40.948Z,98376.57
2022-10-23T23:40:11.257Z,98380.30
2022-10-23T23:42:40.458Z,98383.89
2022-10-23T23:45:14.737Z,98382.02
2022-10-23T23:47:46.463Z,98375.21
2022-10-23T23:50:16.064Z,98363.10
2022-10-23T23:52:45.986Z,98367.11
2022-10-23T23:55:16.100Z,98372.02
2022-10-23T23:57:48.859Z,98379.48
